createdAt,value
2023-11-30T00:04:52.062Z,5.30
2023-11-30T00:09:53.876Z,5.72
2023-11-30T00:14:55.711Z,5.35
2023-11-30T00:19:57.552Z,5.97
2023-11-30T00:24:59.422Z,7.88
2023-11-30T00:30:01.486Z,7.68
2023-11-30T00:35:03.613Z,6.35
2023-11-30T00:40:07.080Z,8.25
2023-11-30T00:45:09.953Z,4.82
2023-11-30T00:50:11.939Z,4.95
2023-11-30T00:55:14.518Z,4.78
2023-11-30T01:00:17.266Z,5.00
2023-11-30T01:05:19.267Z,6.25
2023-11-30T01:10:21.417Z,5.45
2023-11-30T01:15:23.462Z,6.57
2023-11-30T01:20:25.620Z,6.40
2023-11-30T01:25:28.982Z,6.10
2023-11-30T01:30:32.375Z,5.38
2023-11-30T01:35:35.650Z,4.32
2023-11-30T01:40:39.655Z,3.72
2023-11-30T01:45:41.566Z,4.78
2023-11-30T01:50:46.035Z,5.10
2023-11-30T01:55:49.909Z,5.45
2023-11-30T02:00:53.525Z,6.68
2023-11-30T02:05:55.487Z,5.43
2023-11-30T02:10:57.742Z,6.35
2023-11-30T02:16:00.925Z,5.78
2023-11-30T02:21:02.812Z,5.70
2023-11-30T02:26:08.246Z,5.47
2023-11-30T02:31:10.876Z,5.22
2023-11-30T02:36:14.191Z,5.13
2023-11-30T02:41:18.162Z,5.70
2023-11-30T02:46:21.313Z,7.13
2023-11-30T02:51:23.493Z,6.55
2023-11-30T02:56:25.471Z,5.28
2023-11-30T03:01:28.673Z,5.03
2023-11-30T03:06:30.646Z,5.60
2023-11-30T03:11:32.701Z,5.25
2023-11-30T03:16:45.620Z,5.47
2023-11-30T03:21:54.112Z,5.30
2023-11-30T03:26:56.082Z,5.15
2023-11-30T03:31:58.388Z,4.53
2023-11-30T03:37:00.894Z,5.43
2023-11-30T03:42:05.309Z,3.70
2023-11-30T03:47:08.129Z,4.13
2023-11-30T03:52:10.073Z,4.22
2023-11-30T03:57:12.117Z,4.70
2023-11-30T04:02:14.185Z,4.35
2023-11-30T04:07:16.291Z,5.10
2023-11-30T04:12:18.250Z,6.75
2023-11-30T04:17:20.439Z,5.78
2023-11-30T04:22:22.858Z,4.93
2023-11-30T04:27:26.271Z,5.57
2023-11-30T04:32:28.642Z,4.78
2023-11-30T04:37:30.900Z,4.60
2023-11-30T04:42:33.407Z,6.35
2023-11-30T04:47:35.676Z,7.68
2023-11-30T04:52:37.834Z,5.35
2023-11-30T04:57:40.426Z,6.07
2023-11-30T05:02:56.762Z,6.13
2023-11-30T05:07:59.316Z,5.68
2023-11-30T05:13:01.780Z,5.35
2023-11-30T05:18:06.204Z,5.30
2023-11-30T05:23:08.584Z,5.47
2023-11-30T05:28:10.790Z,5.45
2023-11-30T05:33:13.390Z,5.80
2023-11-30T05:38:15.572Z,5.53
2023-11-30T05:43:17.832Z,5.55
2023-11-30T05:48:20.104Z,5.82
2023-11-30T05:53:22.405Z,4.55
2023-11-30T05:58:24.572Z,4.80
2023-11-30T06:03:26.841Z,6.07
2023-11-30T06:08:29.230Z,5.38
2023-11-30T06:13:31.354Z,4.47
2023-11-30T06:18:33.840Z,5.03
2023-11-30T06:23:36.302Z,6.13
2023-11-30T06:28:38.376Z,5.90
2023-11-30T06:33:40.860Z,4.88
2023-11-30T06:38:43.664Z,6.78
2023-11-30T06:43:46.165Z,5.18
2023-11-30T06:48:48.657Z,6.00
2023-11-30T06:53:51.065Z,6.82
2023-11-30T06:58:53.277Z,6.45
2023-11-30T07:03:56.721Z,5.55
2023-11-30T07:08:59.217Z,6.55
2023-11-30T07:14:01.716Z,5.97
2023-11-30T07:19:04.406Z,5.75
2023-11-30T07:24:07.485Z,6.07
2023-11-30T07:29:11.389Z,5.82
2023-11-30T07:34:13.491Z,5.95
2023-11-30T07:39:15.544Z,5.95
2023-11-30T07:44:18.017Z,5.97
2023-11-30T07:49:20.542Z,5.50
2023-11-30T07:54:22.766Z,5.85
2023-11-30T07:59:24.813Z,5.10
2023-11-30T08:04:27.081Z,6.35
2023-11-30T08:09:29.986Z,5.88
2023-11-30T08:14:32.229Z,6.22
2023-11-30T08:19:34.438Z,5.53
2023-11-30T08:24:38.547Z,6.05
2023-11-30T08:29:41.942Z,5.50
2023-11-30T08:34:44.073Z,5.28
2023-11-30T08:39:47.682Z,5.15
2023-11-30T08:44:49.740Z,4.57
2023-11-30T08:49:51.667Z,5.45
2023-11-30T08:54:55.004Z,4.45
2023-11-30T08:59:57.080Z,5.55
2023-11-30T09:04:59.672Z,4.82
2023-11-30T09:10:01.738Z,4.55
2023-11-30T09:15:10.462Z,5.07
2023-11-30T09:20:12.939Z,5.13
2023-11-30T09:25:15.551Z,5.93
2023-11-30T09:30:17.828Z,5.07
2023-11-30T09:35:20.467Z,5.10
2023-11-30T09:40:23.122Z,4.88
2023-11-30T09:50:46.176Z,5.45
2023-11-30T09:55:48.937Z,4.80
2023-11-30T10:07:31.944Z,4.47
2023-11-30T10:12:41.628Z,3.75
2023-11-30T10:17:43.931Z,3.47
2023-11-30T10:22:46.573Z,4.07
2023-11-30T10:27:54.580Z,3.90
2023-11-30T10:32:58.658Z,3.70
2023-11-30T10:38:04.948Z,3.20
2023-11-30T10:43:07.664Z,4.43
2023-11-30T10:48:14.290Z,4.15
2023-11-30T10:53:51.860Z,5.50
2023-11-30T10:58:53.936Z,5.30
2023-11-30T11:03:59.353Z,6.00
2023-11-30T11:09:03.898Z,5.75
2023-11-30T11:14:05.976Z,5.88
2023-11-30T11:19:09.924Z,5.88
2023-11-30T11:24:13.575Z,6.50
2023-11-30T11:29:24.094Z,4.88
2023-11-30T11:34:32.203Z,6.50
2023-11-30T11:39:34.429Z,6.78
2023-11-30T11:45:18.049Z,5.75
2023-11-30T11:50:20.168Z,5.85
2023-11-30T11:55:24.174Z,5.68
2023-11-30T12:00:27.403Z,5.80
2023-11-30T12:05:29.998Z,6.57
2023-11-30T12:10:40.940Z,6.50
2023-11-30T12:15:44.955Z,7.97
2023-11-30T12:20:50.150Z,6.47
2023-11-30T12:25:55.894Z,7.00
2023-11-30T12:30:58.611Z,6.55
2023-11-30T12:36:01.014Z,7.78
2023-11-30T12:41:03.182Z,7.05
2023-11-30T12:46:05.531Z,9.30
2023-11-30T12:51:08.369Z,6.55
2023-11-30T12:56:10.895Z,7.35
2023-11-30T13:01:13.064Z,5.70
2023-11-30T13:06:15.320Z,7.20
2023-11-30T13:11:17.638Z,6.90
2023-11-30T13:16:20.173Z,7.35
2023-11-30T13:21:23.510Z,7.10
2023-11-30T13:26:25.631Z,8.63
2023-11-30T13:31:27.869Z,9.07
2023-11-30T13:36:30.766Z,10.52
2023-11-30T13:41:32.904Z,8.30
2023-11-30T13:46:35.107Z,7.60
2023-11-30T13:51:37.192Z,8.18
2023-11-30T13:56:39.430Z,7.25
2023-11-30T14:01:41.708Z,8.13
2023-11-30T14:06:45.164Z,8.98
2023-11-30T14:11:47.623Z,8.30
2023-11-30T14:16:50.094Z,9.18
2023-11-30T14:21:52.276Z,9.93
2023-11-30T14:26:54.369Z,8.20
2023-11-30T14:31:56.535Z,9.52
2023-11-30T14:36:58.690Z,8.93
2023-11-30T14:42:00.828Z,8.65
2023-11-30T14:47:09.557Z,7.80
2023-11-30T14:52:11.738Z,11.07
2023-11-30T14:57:16.224Z,12.68
2023-11-30T15:02:18.916Z,9.48
2023-11-30T15:07:21.065Z,10.20
2023-11-30T15:12:25.005Z,13.63
2023-11-30T15:17:27.413Z,14.60
2023-11-30T15:22:29.782Z,9.68
2023-11-30T15:27:31.932Z,8.98
2023-11-30T15:32:34.593Z,10.38
2023-11-30T15:37:37.000Z,8.77
2023-11-30T15:42:40.304Z,9.95
2023-11-30T15:47:42.601Z,11.18
2023-11-30T15:52:45.137Z,11.32
2023-11-30T15:57:47.321Z,13.15
2023-11-30T16:02:50.653Z,11.98
2023-11-30T16:07:52.992Z,11.02
2023-11-30T16:12:55.069Z,12.73
2023-11-30T16:17:57.402Z,10.98
2023-11-30T16:23:02.782Z,10.95
2023-11-30T16:28:05.045Z,9.82
2023-11-30T16:33:07.703Z,9.88
2023-11-30T16:38:10.874Z,10.73
2023-11-30T16:43:13.166Z,11.13
2023-11-30T16:48:17.028Z,10.30
2023-11-30T16:53:19.227Z,12.68
2023-11-30T16:58:21.411Z,12.52
2023-11-30T17:03:26.886Z,10.73
2023-11-30T17:08:29.083Z,12.95
2023-11-30T17:13:33.441Z,12.25
2023-11-30T17:18:36.462Z,13.40
2023-11-30T17:23:39.978Z,11.55
2023-11-30T17:28:41.977Z,12.95
2023-11-30T17:33:44.313Z,12.07
2023-11-30T17:38:46.588Z,13.27
2023-11-30T17:43:48.557Z,12.70
2023-11-30T17:48:51.250Z,13.55
2023-11-30T17:53:55.068Z,12.23
2023-11-30T17:58:57.086Z,12.55
2023-11-30T18:03:59.167Z,12.15
2023-11-30T18:09:01.459Z,11.40
2023-11-30T18:14:03.553Z,11.38
2023-11-30T18:19:06.013Z,13.60
2023-11-30T18:24:08.138Z,13.75
2023-11-30T18:29:10.945Z,14.00
2023-11-30T18:34:12.983Z,16.23
2023-11-30T18:39:16.530Z,12.30
2023-11-30T18:44:18.527Z,14.32
2023-11-30T18:49:20.542Z,13.05
2023-11-30T18:54:22.635Z,12.82
2023-11-30T18:59:24.666Z,12.45
2023-11-30T19:04:26.731Z,13.00
2023-11-30T19:09:28.878Z,12.27
2023-11-30T19:14:30.865Z,12.93
2023-11-30T19:19:32.897Z,11.65
2023-11-30T19:24:35.334Z,12.23
2023-11-30T19:29:38.988Z,13.05
2023-11-30T19:34:42.400Z,12.80
2023-11-30T19:39:44.479Z,12.02
2023-11-30T19:44:46.509Z,11.35
2023-11-30T19:49:49.867Z,11.80
2023-11-30T19:54:52.204Z,12.38
2023-11-30T19:59:54.400Z,11.93
2023-11-30T20:04:57.068Z,12.98
2023-11-30T20:09:59.162Z,11.32
2023-11-30T20:15:01.281Z,10.77
2023-11-30T20:20:03.875Z,11.07
2023-11-30T20:25:07.587Z,10.25
2023-11-30T20:30:10.767Z,11.55
2023-11-30T20:35:13.009Z,12.45
2023-11-30T20:40:15.169Z,11.38
2023-11-30T20:45:17.274Z,12.68
2023-11-30T20:50:19.410Z,14.75
2023-11-30T20:55:23.213Z,14.48
2023-11-30T21:00:25.321Z,15.30
2023-11-30T21:05:27.947Z,13.20
2023-11-30T21:10:30.147Z,16.50
2023-11-30T21:15:32.282Z,13.80
2023-11-30T21:20:35.244Z,12.68
2023-11-30T21:25:37.332Z,14.23
2023-11-30T21:30:41.359Z,13.45
2023-11-30T21:35:43.441Z,15.95
2023-11-30T21:40:46.653Z,13.52
2023-11-30T21:45:48.812Z,15.52
2023-11-30T21:50:51.095Z,14.15
2023-11-30T21:55:53.047Z,13.60
2023-11-30T22:00:55.234Z,14.18
2023-11-30T22:05:58.511Z,12.90
2023-11-30T22:11:00.534Z,11.82
2023-11-30T22:16:07.096Z,12.20
2023-11-30T22:21:14.203Z,12.13
2023-11-30T22:26:16.704Z,14.93
2023-11-30T22:31:18.798Z,14.20
2023-11-30T22:36:20.943Z,14.35
2023-11-30T22:41:23.045Z,15.40
2023-11-30T22:46:26.716Z,15.52
2023-11-30T22:51:29.035Z,13.95
2023-11-30T22:56:31.265Z,15.02
2023-11-30T23:01:33.593Z,15.43
2023-11-30T23:06:36.042Z,16.45
2023-11-30T23:11:38.177Z,13.70
2023-11-30T23:16:40.357Z,14.18
2023-11-30T23:21:42.486Z,14.65
2023-11-30T23:26:44.460Z,12.52
2023-11-30T23:31:46.594Z,15.07
2023-11-30T23:36:48.862Z,14.13
2023-11-30T23:41:51.138Z,12.73
2023-11-30T23:46:53.301Z,15.48
2023-11-30T23:51:55.400Z,16.60
2023-11-30T23:56:57.489Z,15.90
